Time;durP1;ratioP1;P1;durP2;ratioP2;P2;SDS_P1;SDS_P2;PMS_P1;PMS_P2;Temp;Humidity;BMP_temperature;BMP_pressure;BME280_temperature;BME280_humidity;BME280_pressure;Samples;Min_cycle;Max_cycle;Signal;HPM_P1;HPM_P2
2022/06/01 00:00:19;;;;;;;7.60;5.20;;;;;;;;;;5022622;28;20393;-69
2022/06/01 00:02:44;;;;;;;9.77;5.10;;;;;;;;;;5028124;28;20526;-69
2022/06/01 00:05:09;;;;;;;8.13;4.80;;;;;;;;;;5019301;28;20794;-69
2022/06/01 00:07:35;;;;;;;12.17;5.10;;;;;;;;;;5025820;28;20494;-69
2022/06/01 00:10:00;;;;;;;8.03;4.70;;;;;;;;;;5021983;28;20022;-69
2022/06/01 00:12:25;;;;;;;6.90;5.00;;;;;;;;;;5024270;28;20193;-69
2022/06/01 00:14:51;;;;;;;6.63;5.03;;;;;;;;;;5023291;28;20064;-69
2022/06/01 00:17:16;;;;;;;8.33;4.70;;;;;;;;;;5020041;28;20471;-69
2022/06/01 00:19:42;;;;;;;9.20;5.73;;;;;;;;;;5021478;28;20285;-69
2022/06/01 00:22:14;;;;;;;7.77;5.50;;;;;;;;;;5026657;28;20022;-69
2022/06/01 00:24:39;;;;;;;;;;;;;;;;;;5026165;28;20136;-69
2022/06/01 00:27:05;;;;;;;7.73;5.23;;;;;;;;;;5018949;28;19956;-69
2022/06/01 00:29:30;;;;;;;7.97;5.40;;;;;;;;;;5016519;28;20415;-69
2022/06/01 00:31:55;;;;;;;9.07;5.67;;;;;;;;;;5026435;28;20132;-69
2022/06/01 00:34:21;;;;;;;9.33;6.10;;;;;;;;;;5019999;28;20025;-69
2022/06/01 00:36:46;;;;;;;8.47;5.30;;;;;;;;;;5020571;28;20064;-69
2022/06/01 00:39:11;;;;;;;9.83;5.50;;;;;;;;;;5024240;28;20026;-69
2022/06/01 00:41:36;;;;;;;7.90;5.43;;;;;;;;;;5016985;28;20017;-69
2022/06/01 00:44:02;;;;;;;7.20;5.27;;;;;;;;;;5013930;28;20036;-69
2022/06/01 00:46:28;;;;;;;7.60;5.20;;;;;;;;;;5019764;28;20024;-69
2022/06/01 00:48:55;;;;;;;8.07;5.20;;;;;;;;;;5020858;28;20026;-69
2022/06/01 00:51:22;;;;;;;8.53;5.77;;;;;;;;;;5015978;28;20026;-69
2022/06/01 00:53:48;;;;;;;10.90;6.07;;;;;;;;;;5024481;28;20021;-69
2022/06/01 00:56:19;;;;;;;9.27;5.93;;;;;;;;;;5014689;28;20525;-69
2022/06/01 00:58:45;;;;;;;12.43;6.17;;;;;;;;;;5016301;28;21000;-69
2022/06/01 01:01:12;;;;;;;8.00;6.20;;;;;;;;;;5020057;28;20037;-69
2022/06/01 01:03:40;;;;;;;16.13;7.27;;;;;;;;;;5022708;28;20073;-69
2022/06/01 01:06:13;;;;;;;9.07;7.00;;;;;;;;;;5019415;28;20025;-69
2022/06/01 01:08:40;;;;;;;9.77;6.10;;;;;;;;;;5016375;28;20022;-69
2022/06/01 01:11:06;;;;;;;9.40;6.57;;;;;;;;;;5014829;28;20036;-69
2022/06/01 01:13:31;;;;;;;11.50;7.10;;;;;;;;;;5011007;28;20022;-69
2022/06/01 01:15:59;;;;;;;9.17;6.60;;;;;;;;;;5017236;28;20028;-69
2022/06/01 01:18:31;;;;;;;10.20;7.10;;;;;;;;;;5016762;28;20138;-69
2022/06/01 01:21:16;;;;;;;10.03;7.13;;;;;;;;;;5017555;28;20029;-70
2022/06/01 01:24:00;;;;;;;13.07;7.70;;;;;;;;;;5015287;28;20030;-69
2022/06/01 01:26:26;;;;;;;12.70;7.73;;;;;;;;;;5011761;28;20433;-69
2022/06/01 01:28:52;;;;;;;12.77;8.20;;;;;;;;;;5016180;28;20036;-69
2022/06/01 01:31:19;;;;;;;12.53;8.13;;;;;;;;;;5023265;28;20048;-69
2022/06/01 01:33:45;;;;;;;12.47;8.17;;;;;;;;;;5015229;28;20033;-69
2022/06/01 01:36:11;;;;;;;15.47;8.93;;;;;;;;;;5016387;28;20512;-69
2022/06/01 01:38:53;;;;;;;11.60;8.30;;;;;;;;;;5013563;28;20022;-69
2022/06/01 01:41:24;;;;;;;12.70;9.15;;;;;;;;;;5016101;28;20110;-69
2022/06/01 01:44:02;;;;;;;11.82;9.07;;;;;;;;;;5021908;28;20500;-69
2022/06/01 01:46:28;;;;;;;13.03;9.53;;;;;;;;;;5019212;28;20022;-70
2022/06/01 01:48:53;;;;;;;13.93;10.57;;;;;;;;;;5022484;28;20029;-69
2022/06/01 01:51:19;;;;;;;14.40;10.80;;;;;;;;;;5017001;28;20036;-69
2022/06/01 01:53:45;;;;;;;13.43;10.07;;;;;;;;;;5025468;28;20022;-69
2022/06/01 01:56:21;;;;;;;13.83;10.77;;;;;;;;;;5016400;28;20034;-69
2022/06/01 01:58:50;;;;;;;13.20;10.43;;;;;;;;;;5016783;28;20483;-69
2022/06/01 02:01:19;;;;;;;15.03;10.90;;;;;;;;;;5020222;28;20029;-69
2022/06/01 02:03:52;;;;;;;14.37;10.73;;;;;;;;;;5019869;28;20485;-69
2022/06/01 02:06:23;;;;;;;13.77;11.00;;;;;;;;;;5018216;28;20488;-69
2022/06/01 02:09:01;;;;;;;14.90;10.95;;;;;;;;;;5020162;28;20029;-69
2022/06/01 02:14:22;;;;;;;14.87;11.93;;;;;;;;;;5013774;28;20045;-69
2022/06/01 02:16:49;;;;;;;18.25;12.70;;;;;;;;;;5021958;28;20025;-71
2022/06/01 02:19:17;;;;;;;18.23;13.03;;;;;;;;;;5025175;28;20500;-71
2022/06/01 02:21:42;;;;;;;18.37;12.73;;;;;;;;;;5015471;28;20041;-71
2022/06/01 02:24:08;;;;;;;19.57;13.30;;;;;;;;;;5015491;28;20026;-71
2022/06/01 02:26:34;;;;;;;17.23;13.17;;;;;;;;;;5017165;28;20064;-71
2022/06/01 02:29:06;;;;;;;21.67;14.13;;;;;;;;;;5016957;28;20390;-71
2022/06/01 02:31:33;;;;;;;19.87;13.63;;;;;;;;;;5025940;28;20026;-71
2022/06/01 02:33:59;;;;;;;22.97;14.63;;;;;;;;;;5017628;28;20025;-71
2022/06/01 02:36:26;;;;;;;20.37;13.57;;;;;;;;;;5019451;28;20390;-71
2022/06/01 02:38:52;;;;;;;18.60;14.53;;;;;;;;;;5017221;28;20021;-71
2022/06/01 02:44:01;;;;;;;20.47;14.57;;;;;;;;;;5029162;28;20032;-71
2022/06/01 02:46:27;;;;;;;20.47;15.10;;;;;;;;;;5020501;28;20026;-71
2022/06/01 02:48:52;;;;;;;20.87;15.80;;;;;;;;;;5021221;28;20022;-71
2022/06/01 02:51:18;;;;;;;23.23;15.13;;;;;;;;;;5025115;28;20033;-71
2022/06/01 02:53:44;;;;;;;24.97;16.40;;;;;;;;;;5024398;28;20124;-70
2022/06/01 02:56:11;;;;;;;22.20;16.50;;;;;;;;;;5018948;28;20409;-69
2022/06/01 02:58:37;;;;;;;24.77;16.17;;;;;;;;;;5025152;28;20389;-69
2022/06/01 03:01:03;;;;;;;21.87;15.73;;;;;;;;;;5024510;28;20026;-69
2022/06/01 03:03:28;;;;;;;22.47;16.33;;;;;;;;;;5022296;28;20036;-70
2022/06/01 03:05:53;;;;;;;20.83;16.27;;;;;;;;;;5024251;28;20096;-69
2022/06/01 03:08:18;;;;;;;23.90;16.37;;;;;;;;;;5025686;28;20033;-69
2022/06/01 03:10:44;;;;;;;25.10;17.10;;;;;;;;;;5023128;28;20049;-69
2022/06/01 03:13:10;;;;;;;23.90;17.67;;;;;;;;;;5018881;28;20029;-69
2022/06/01 03:15:35;;;;;;;27.20;17.53;;;;;;;;;;5022256;28;20025;-69
2022/06/01 03:18:00;;;;;;;24.90;18.27;;;;;;;;;;5023733;28;20053;-69
2022/06/01 03:20:27;;;;;;;26.63;16.83;;;;;;;;;;5027959;28;20481;-70
2022/06/01 03:22:53;;;;;;;25.97;17.33;;;;;;;;;;5024650;28;20053;-69
2022/06/01 03:25:22;;;;;;;28.00;18.83;;;;;;;;;;5028454;28;20543;-70
2022/06/01 03:27:48;;;;;;;22.47;17.77;;;;;;;;;;5018299;28;20024;-69
2022/06/01 03:30:15;;;;;;;27.23;17.77;;;;;;;;;;5019132;28;20029;-69
2022/06/01 03:32:41;;;;;;;25.77;18.37;;;;;;;;;;5025031;28;20036;-69
2022/06/01 03:35:07;;;;;;;25.90;18.17;;;;;;;;;;5018714;28;20017;-69
2022/06/01 03:37:32;;;;;;;24.63;18.07;;;;;;;;;;5016720;28;20474;-69
2022/06/01 03:39:57;;;;;;;27.03;19.27;;;;;;;;;;5028624;28;20021;-69
2022/06/01 03:42:23;;;;;;;25.10;18.10;;;;;;;;;;5026749;28;20028;-69
2022/06/01 03:47:32;;;;;;;25.33;18.60;;;;;;;;;;5024359;28;20126;-69
2022/06/01 03:49:58;;;;;;;27.37;19.03;;;;;;;;;;5019195;28;20549;-69
2022/06/01 03:52:23;;;;;;;25.60;19.73;;;;;;;;;;5023880;28;20056;-69
2022/06/01 03:54:48;;;;;;;25.60;18.67;;;;;;;;;;5022977;28;20621;-69
2022/06/01 03:57:13;;;;;;;28.10;19.10;;;;;;;;;;5022650;28;20470;-69
2022/06/01 03:59:39;;;;;;;27.33;18.70;;;;;;;;;;5027902;28;20366;-69
2022/06/01 04:02:05;;;;;;;26.53;18.90;;;;;;;;;;5024975;28;20020;-69
2022/06/01 04:04:31;;;;;;;27.00;18.70;;;;;;;;;;5043761;28;20025;-69
2022/06/01 04:06:56;;;;;;;25.97;19.67;;;;;;;;;;5027311;28;20032;-69
2022/06/01 04:09:22;;;;;;;29.07;21.70;;;;;;;;;;5024995;28;20017;-69
2022/06/01 04:11:47;;;;;;;29.33;20.20;;;;;;;;;;5026796;28;20025;-69
2022/06/01 04:14:12;;;;;;;33.23;22.77;;;;;;;;;;5027002;28;20033;-69
2022/06/01 04:16:37;;;;;;;33.07;23.40;;;;;;;;;;5021701;28;20018;-69
2022/06/01 04:19:03;;;;;;;32.17;23.03;;;;;;;;;;5017834;28;20024;-69
2022/06/01 04:21:30;;;;;;;31.80;22.93;;;;;;;;;;5020537;28;20053;-69
2022/06/01 04:23:58;;;;;;;33.57;23.00;;;;;;;;;;5026860;28;20021;-69
2022/06/01 04:26:24;;;;;;;36.13;23.73;;;;;;;;;;5023493;28;20120;-69
2022/06/01 04:28:49;;;;;;;36.63;25.27;;;;;;;;;;5024872;28;20470;-70
2022/06/01 04:31:14;;;;;;;37.80;24.13;;;;;;;;;;5026165;28;20710;-69
2022/06/01 04:33:40;;;;;;;39.07;25.70;;;;;;;;;;5023419;28;20052;-69
2022/06/01 04:36:06;;;;;;;35.93;23.83;;;;;;;;;;5022209;28;20017;-69
2022/06/01 04:38:31;;;;;;;37.03;24.60;;;;;;;;;;5023925;28;20018;-69
2022/06/01 04:40:56;;;;;;;34.50;23.37;;;;;;;;;;5019077;28;20421;-70
2022/06/01 04:43:22;;;;;;;36.13;25.87;;;;;;;;;;5018639;28;20041;-69
2022/06/01 04:45:51;;;;;;;33.43;23.23;;;;;;;;;;5019105;28;20021;-69
2022/06/01 04:48:16;;;;;;;36.50;24.17;;;;;;;;;;5025497;28;20053;-70
2022/06/01 04:50:44;;;;;;;38.93;25.37;;;;;;;;;;5025052;28;20053;-70
2022/06/01 04:53:13;;;;;;;34.43;24.93;;;;;;;;;;5014705;28;20041;-69
2022/06/01 04:55:38;;;;;;;33.57;24.47;;;;;;;;;;5022159;28;20025;-69
2022/06/01 04:58:04;;;;;;;32.57;23.27;;;;;;;;;;5024153;28;20034;-69
2022/06/01 05:00:29;;;;;;;38.47;24.87;;;;;;;;;;5022416;28;20076;-69
2022/06/01 05:02:54;;;;;;;36.67;25.63;;;;;;;;;;5020231;28;20029;-69
2022/06/01 05:05:20;;;;;;;36.17;25.13;;;;;;;;;;5020208;28;20489;-69
2022/06/01 05:07:45;;;;;;;35.00;25.10;;;;;;;;;;5020066;28;20021;-70
2022/06/01 05:10:10;;;;;;;32.37;22.90;;;;;;;;;;5014111;28;20072;-69
2022/06/01 05:12:35;;;;;;;29.43;21.20;;;;;;;;;;5018874;28;20399;-69
2022/06/01 05:15:01;;;;;;;24.10;17.97;;;;;;;;;;5020554;28;20029;-68
2022/06/01 05:17:26;;;;;;;20.07;16.00;;;;;;;;;;5019676;28;20401;-68
2022/06/01 05:19:51;;;;;;;23.87;16.13;;;;;;;;;;5021383;28;20478;-68
2022/06/01 05:22:16;;;;;;;20.10;14.70;;;;;;;;;;5021321;28;20026;-68
2022/06/01 05:24:42;;;;;;;17.10;13.33;;;;;;;;;;5021279;28;20099;-67
2022/06/01 05:27:07;;;;;;;18.40;12.47;;;;;;;;;;5015526;28;20025;-68
2022/06/01 05:29:33;;;;;;;17.03;12.47;;;;;;;;;;5016245;28;20417;-68
2022/06/01 05:31:58;;;;;;;17.47;13.13;;;;;;;;;;5018391;28;20053;-68
2022/06/01 05:34:24;;;;;;;18.07;13.43;;;;;;;;;;5021867;28;20087;-69
2022/06/01 05:36:49;;;;;;;19.63;14.17;;;;;;;;;;5020380;28;20726;-69
2022/06/01 05:39:14;;;;;;;18.83;14.83;;;;;;;;;;5021150;28;20540;-69
2022/06/01 05:41:40;;;;;;;18.20;15.23;;;;;;;;;;5019149;28;20742;-69
2022/06/01 05:44:06;;;;;;;20.43;15.37;;;;;;;;;;5018360;28;20033;-69
2022/06/01 05:46:35;;;;;;;21.20;16.27;;;;;;;;;;5015680;28;20490;-69
2022/06/01 05:49:00;;;;;;;21.53;16.43;;;;;;;;;;5022045;28;20493;-70
2022/06/01 05:51:25;;;;;;;20.17;15.43;;;;;;;;;;5019013;28;20082;-69
2022/06/01 05:53:50;;;;;;;20.50;16.50;;;;;;;;;;5017513;28;21199;-69
2022/06/01 05:56:16;;;;;;;24.57;17.80;;;;;;;;;;5013901;28;20470;-69
2022/06/01 05:58:41;;;;;;;23.23;18.20;;;;;;;;;;5017900;28;20428;-69
2022/06/01 06:01:07;;;;;;;23.07;18.97;;;;;;;;;;5014788;28;20130;-69
2022/06/01 06:03:32;;;;;;;26.53;18.57;;;;;;;;;;5021234;28;20108;-69
2022/06/01 06:06:15;;;;;;;24.93;19.50;;;;;;;;;;5022672;28;20021;-69
2022/06/01 06:08:42;;;;;;;26.53;18.77;;;;;;;;;;5016239;28;20029;-69
2022/06/01 06:11:07;;;;;;;25.50;19.40;;;;;;;;;;5023323;28;20041;-69
2022/06/01 06:13:33;;;;;;;24.37;19.63;;;;;;;;;;5019672;28;20030;-70
2022/06/01 06:15:58;;;;;;;26.63;19.67;;;;;;;;;;5031004;28;20017;-70
2022/06/01 06:18:24;;;;;;;25.87;18.90;;;;;;;;;;5033286;28;20032;-70
2022/06/01 06:20:50;;;;;;;27.03;19.97;;;;;;;;;;5035746;28;20485;-70
2022/06/01 06:23:15;;;;;;;27.23;21.53;;;;;;;;;;5035059;28;20021;-70
2022/06/01 06:25:40;;;;;;;27.70;21.20;;;;;;;;;;5031748;28;20515;-70
2022/06/01 06:28:06;;;;;;;28.57;21.70;;;;;;;;;;5032929;28;20095;-70
2022/06/01 06:30:31;;;;;;;28.77;20.87;;;;;;;;;;5032597;28;20064;-70
2022/06/01 06:32:56;;;;;;;28.33;21.13;;;;;;;;;;5034990;28;20036;-70
2022/06/01 06:35:21;;;;;;;25.60;20.63;;;;;;;;;;5035744;28;20100;-70
2022/06/01 06:37:47;;;;;;;25.90;20.17;;;;;;;;;;5033636;28;20443;-70
2022/06/01 06:40:12;;;;;;;25.53;20.40;;;;;;;;;;5035052;28;20021;-70
2022/06/01 06:42:37;;;;;;;25.60;20.80;;;;;;;;;;5024805;28;20048;-70
2022/06/01 06:45:03;;;;;;;26.37;19.90;;;;;;;;;;5020944;28;20024;-70
2022/06/01 06:47:30;;;;;;;26.67;20.17;;;;;;;;;;5027342;28;20500;-70
2022/06/01 06:49:55;;;;;;;27.83;19.87;;;;;;;;;;5034023;28;20386;-70
2022/06/01 06:52:20;;;;;;;25.27;19.40;;;;;;;;;;5032641;28;20033;-70
2022/06/01 06:54:46;;;;;;;26.33;19.80;;;;;;;;;;5036080;28;20021;-71
2022/06/01 06:57:11;;;;;;;25.23;19.13;;;;;;;;;;5034580;28;20021;-70
2022/06/01 06:59:37;;;;;;;24.33;17.70;;;;;;;;;;5034500;28;20052;-71
2022/06/01 07:02:02;;;;;;;23.70;19.17;;;;;;;;;;5023651;28;20079;-70
2022/06/01 07:04:27;;;;;;;24.83;19.10;;;;;;;;;;5017772;28;20018;-70
2022/06/01 07:06:53;;;;;;;25.73;18.23;;;;;;;;;;5023442;28;20026;-70
2022/06/01 07:09:18;;;;;;;24.63;18.30;;;;;;;;;;5018930;28;20092;-70
2022/06/01 07:11:43;;;;;;;23.77;17.23;;;;;;;;;;5021092;28;20014;-70
2022/06/01 07:14:08;;;;;;;22.47;18.17;;;;;;;;;;5034238;28;20025;-70
2022/06/01 07:16:34;;;;;;;23.53;18.47;;;;;;;;;;5028482;28;20486;-70
2022/06/01 07:19:01;;;;;;;22.77;17.98;;;;;;;;;;5018984;28;20651;-70
2022/06/01 07:21:27;;;;;;;22.03;15.93;;;;;;;;;;5021582;28;20068;-70
2022/06/01 07:23:52;;;;;;;24.60;17.33;;;;;;;;;;5031536;28;20474;-70
2022/06/01 07:26:22;;;;;;;21.97;17.90;;;;;;;;;;5032390;28;20441;-70
2022/06/01 07:28:47;;;;;;;23.63;17.73;;;;;;;;;;5033888;28;20381;-70
2022/06/01 07:31:13;;;;;;;22.97;18.93;;;;;;;;;;5029712;28;20029;-70
2022/06/01 07:33:39;;;;;;;24.63;19.13;;;;;;;;;;5031155;28;20087;-70
2022/06/01 07:36:05;;;;;;;21.80;17.77;;;;;;;;;;5034305;28;20021;-70
2022/06/01 07:44:19;;;;;;;21.57;17.40;;;;;;;;;;5029911;28;20063;-70
2022/06/01 07:46:45;;;;;;;21.73;17.10;;;;;;;;;;5028672;28;20022;-70
2022/06/01 07:49:10;;;;;;;21.35;16.58;;;;;;;;;;5031436;28;20112;-70
2022/06/01 07:51:36;;;;;;;22.15;16.38;;;;;;;;;;5030782;28;20045;-70
2022/06/01 07:54:02;;;;;;;23.20;15.60;;;;;;;;;;5031191;28;20013;-70
2022/06/01 07:56:27;;;;;;;18.90;15.93;;;;;;;;;;5032139;28;20394;-70
2022/06/01 07:58:52;;;;;;;22.80;16.73;;;;;;;;;;5033290;28;20394;-70
2022/06/01 08:01:21;;;;;;;21.25;16.42;;;;;;;;;;5033466;28;20029;-70
2022/06/01 08:03:46;;;;;;;20.30;16.67;;;;;;;;;;5020276;28;20044;-70
2022/06/01 08:06:11;;;;;;;19.45;15.55;;;;;;;;;;5029734;28;20037;-70
2022/06/01 08:08:37;;;;;;;20.40;16.30;;;;;;;;;;5032249;28;20033;-70
2022/06/01 08:11:02;;;;;;;19.67;15.68;;;;;;;;;;5023312;28;20036;-70
2022/06/01 08:13:27;;;;;;;21.52;16.80;;;;;;;;;;5028491;28;20108;-69
2022/06/01 08:15:55;;;;;;;17.83;15.00;;;;;;;;;;5032904;28;20079;-69
2022/06/01 08:18:21;;;;;;;17.77;14.48;;;;;;;;;;5028587;28;20029;-69
2022/06/01 08:20:47;;;;;;;18.13;14.60;;;;;;;;;;5019124;28;20057;-68
2022/06/01 08:23:13;;;;;;;17.83;14.68;;;;;;;;;;5018928;28;20040;-69
2022/06/01 08:25:39;;;;;;;18.08;14.45;;;;;;;;;;5030846;28;20030;-69
2022/06/01 08:28:04;;;;;;;17.70;13.98;;;;;;;;;;5030742;28;20121;-69
2022/06/01 08:30:31;;;;;;;16.10;12.68;;;;;;;;;;5031129;28;20358;-69
2022/06/01 08:32:57;;;;;;;13.93;12.07;;;;;;;;;;5023380;28;20033;-69
2022/06/01 08:35:27;;;;;;;14.52;12.23;;;;;;;;;;5015152;28;20040;-69
2022/06/01 08:37:53;;;;;;;14.73;11.02;;;;;;;;;;5012064;28;20034;-69
2022/06/01 08:40:20;;;;;;;14.88;12.15;;;;;;;;;;5012403;28;20037;-69
2022/06/01 08:42:55;;;;;;;14.48;11.00;;;;;;;;;;5025963;28;20124;-69
2022/06/01 08:45:22;;;;;;;10.98;8.70;;;;;;;;;;5026895;28;20029;-69
2022/06/01 08:47:48;;;;;;;12.27;8.88;;;;;;;;;;5027601;28;20555;-71
2022/06/01 08:50:20;;;;;;;11.40;8.80;;;;;;;;;;5026888;28;20033;-71
2022/06/01 08:52:45;;;;;;;10.90;8.88;;;;;;;;;;5032101;28;20724;-71
2022/06/01 08:55:11;;;;;;;12.82;9.80;;;;;;;;;;5030595;28;20037;-71
2022/06/01 08:57:43;;;;;;;10.38;8.75;;;;;;;;;;5027315;28;20050;-71
2022/06/01 09:00:11;;;;;;;10.30;7.88;;;;;;;;;;5019562;28;20032;-71
2022/06/01 09:02:36;;;;;;;9.23;7.45;;;;;;;;;;5014683;28;20033;-71
2022/06/01 09:05:01;;;;;;;12.55;7.20;;;;;;;;;;5024485;28;20458;-71
2022/06/01 09:07:29;;;;;;;8.55;6.47;;;;;;;;;;5024490;28;20205;-71
2022/06/01 09:09:57;;;;;;;8.50;6.40;;;;;;;;;;5025654;28;20464;-69
2022/06/01 09:12:23;;;;;;;9.23;6.63;;;;;;;;;;5026614;28;20041;-69
2022/06/01 09:14:53;;;;;;;8.95;6.70;;;;;;;;;;5012065;28;20046;-69
2022/06/01 09:17:18;;;;;;;10.52;7.30;;;;;;;;;;5011892;28;20021;-69
2022/06/01 09:22:37;;;;;;;11.40;7.63;;;;;;;;;;5011849;28;20048;-69
2022/06/01 09:25:04;;;;;;;7.25;5.43;;;;;;;;;;5011672;28;20087;-69
2022/06/01 09:27:41;;;;;;;7.30;4.82;;;;;;;;;;5012066;28;20359;-69
2022/06/01 09:30:27;;;;;;;8.13;4.68;;;;;;;;;;5014637;28;20029;-70
2022/06/01 09:33:11;;;;;;;8.15;4.05;;;;;;;;;;5023369;28;20041;-71
2022/06/01 09:35:38;;;;;;;5.70;4.20;;;;;;;;;;5023506;28;20017;-70
2022/06/01 09:38:10;;;;;;;6.68;4.18;;;;;;;;;;5013784;28;20018;-70
2022/06/01 09:40:38;;;;;;;6.30;4.50;;;;;;;;;;5011950;28;20017;-70
2022/06/01 09:43:04;;;;;;;6.53;4.55;;;;;;;;;;5029508;28;20028;-70
2022/06/01 09:45:29;;;;;;;7.93;4.93;;;;;;;;;;5023126;28;20017;-70
2022/06/01 09:48:09;;;;;;;6.53;4.70;;;;;;;;;;5016322;28;20021;-71
2022/06/01 09:50:34;;;;;;;5.50;4.00;;;;;;;;;;5028840;28;20018;-71
2022/06/01 09:53:01;;;;;;;5.80;3.60;;;;;;;;;;5030569;28;20378;-71
2022/06/01 09:55:59;;;;;;;5.35;3.13;;;;;;;;;;5017775;28;20045;-71
2022/06/01 10:06:49;;;;;;;6.28;4.53;;;;;;;;;;5020746;28;20038;-71
2022/06/01 10:09:19;;;;;;;6.93;4.28;;;;;;;;;;5014749;28;20033;-71
2022/06/01 10:11:46;;;;;;;5.20;3.75;;;;;;;;;;5028555;28;20029;-71
2022/06/01 10:14:16;;;;;;;5.50;3.75;;;;;;;;;;5028836;28;20355;-71
2022/06/01 10:17:00;;;;;;;6.72;4.45;;;;;;;;;;5019276;28;20041;-71
2022/06/01 10:19:29;;;;;;;6.85;4.30;;;;;;;;;;5027288;28;20033;-70
2022/06/01 10:22:00;;;;;;;8.20;4.40;;;;;;;;;;5028963;28;20420;-71
2022/06/01 10:24:46;;;;;;;6.75;4.07;;;;;;;;;;5017313;28;20386;-71
2022/06/01 10:27:11;;;;;;;6.78;4.38;;;;;;;;;;5025850;28;20029;-71
2022/06/01 10:29:48;;;;;;;7.18;4.32;;;;;;;;;;5030699;28;20025;-71
2022/06/01 10:32:19;;;;;;;6.63;4.70;;;;;;;;;;5027141;28;20025;-71
2022/06/01 10:34:50;;;;;;;7.45;5.05;;;;;;;;;;5028215;28;20033;-71
2022/06/01 10:37:30;;;;;;;8.98;6.40;;;;;;;;;;5015646;28;20022;-71
2022/06/01 10:39:59;;;;;;;10.35;7.22;;;;;;;;;;5025378;28;20068;-71
2022/06/01 10:45:20;;;;;;;6.65;5.43;;;;;;;;;;5026022;28;20035;-71
2022/06/01 10:47:48;;;;;;;6.60;5.00;;;;;;;;;;5025387;28;20404;-71
2022/06/01 10:50:18;;;;;;;5.88;4.50;;;;;;;;;;5030320;28;20075;-71
2022/06/01 10:52:48;;;;;;;7.95;4.88;;;;;;;;;;5028360;28;20036;-71
2022/06/01 10:55:16;;;;;;;8.07;5.57;;;;;;;;;;5017823;28;20378;-71
2022/06/01 10:57:44;;;;;;;6.75;5.30;;;;;;;;;;5010971;28;20375;-71
2022/06/01 11:00:11;;;;;;;7.78;5.60;;;;;;;;;;5028203;28;20064;-71
2022/06/01 11:02:48;;;;;;;7.88;5.47;;;;;;;;;;5032558;28;20029;-71
2022/06/01 11:05:16;;;;;;;5.53;4.07;;;;;;;;;;5030457;28;20030;-71
2022/06/01 11:07:49;;;;;;;5.57;3.88;;;;;;;;;;5031633;28;20112;-73
2022/06/01 11:10:33;;;;;;;4.97;3.15;;;;;;;;;;5033024;28;20079;-72
2022/06/01 11:13:18;;;;;;;5.88;3.60;;;;;;;;;;5032390;28;20037;-72
2022/06/01 11:15:58;;;;;;;4.22;2.97;;;;;;;;;;5034095;28;20538;-72
2022/06/01 11:18:26;;;;;;;5.03;3.10;;;;;;;;;;5028421;28;20030;-72
2022/06/01 11:20:58;;;;;;;4.30;2.80;;;;;;;;;;5032515;28;20276;-72
2022/06/01 11:23:23;;;;;;;3.97;2.60;;;;;;;;;;5030642;28;20079;-72
2022/06/01 11:25:59;;;;;;;3.80;2.60;;;;;;;;;;5014025;28;20030;-72
2022/06/01 11:28:33;;;;;;;7.18;2.90;;;;;;;;;;5014034;28;20189;-72
2022/06/01 11:31:13;;;;;;;5.43;3.20;;;;;;;;;;5014118;28;20057;-72
2022/06/01 11:33:51;;;;;;;4.30;2.95;;;;;;;;;;5013241;28;20490;-72
2022/06/01 11:36:32;;;;;;;3.53;2.13;;;;;;;;;;5013625;28;20026;-72
2022/06/01 11:39:11;;;;;;;4.87;3.00;;;;;;;;;;5015931;28;20030;-72
2022/06/01 11:41:38;;;;;;;6.00;4.60;;;;;;;;;;5029422;28;20045;-72
2022/06/01 11:44:25;;;;;;;6.38;5.10;;;;;;;;;;5031608;28;20501;-72
2022/06/01 11:47:02;;;;;;;10.13;5.40;;;;;;;;;;5032380;28;20056;-72
2022/06/01 11:49:37;;;;;;;8.55;5.50;;;;;;;;;;5029961;28;20052;-72
2022/06/01 11:52:17;;;;;;;6.28;5.32;;;;;;;;;;5032922;28;20033;-72
2022/06/01 11:54:43;;;;;;;7.87;5.90;;;;;;;;;;5027023;28;20025;-72
2022/06/01 11:57:26;;;;;;;8.82;5.72;;;;;;;;;;5032642;28;20544;-72
2022/06/01 11:59:51;;;;;;;10.80;5.72;;;;;;;;;;5033060;28;20032;-72
2022/06/01 12:02:41;;;;;;;8.30;5.38;;;;;;;;;;5033017;28;20420;-72
2022/06/01 12:05:12;;;;;;;6.95;5.43;;;;;;;;;;5014023;28;20034;-72
2022/06/01 12:07:39;;;;;;;6.22;4.63;;;;;;;;;;5019914;28;20025;-73
2022/06/01 12:10:18;;;;;;;6.65;4.65;;;;;;;;;;5027189;28;20030;-73
2022/06/01 12:12:44;;;;;;;5.40;4.25;;;;;;;;;;5030090;28;20048;-73
2022/06/01 12:15:26;;;;;;;7.03;4.20;;;;;;;;;;5031219;28;20033;-73
2022/06/01 12:18:06;;;;;;;5.10;4.10;;;;;;;;;;5031098;28;20025;-73
2022/06/01 12:20:31;;;;;;;5.93;3.93;;;;;;;;;;5032634;28;20036;-73
2022/06/01 12:29:02;;;;;;;3.90;2.03;;;;;;;;;;5012716;28;20037;-72
2022/06/01 12:31:37;;;;;;;4.03;1.88;;;;;;;;;;5023019;28;20024;-72
2022/06/01 12:34:19;;;;;;;4.75;1.60;;;;;;;;;;5028485;28;20104;-72
2022/06/01 12:36:53;;;;;;;3.25;1.60;;;;;;;;;;5032574;28;20505;-73
2022/06/01 12:39:31;;;;;;;3.42;1.60;;;;;;;;;;5031157;28;20017;-73
2022/06/01 12:42:22;;;;;;;3.83;1.60;;;;;;;;;;5030374;28;20021;-73
2022/06/01 12:44:50;;;;;;;2.75;1.25;;;;;;;;;;5013388;28;20034;-73
2022/06/01 12:47:37;;;;;;;2.60;1.55;;;;;;;;;;5012615;28;20032;-73
2022/06/01 12:50:10;;;;;;;1.98;1.27;;;;;;;;;;5025747;28;20535;-73
2022/06/01 12:52:36;;;;;;;2.13;1.40;;;;;;;;;;5031816;28;20518;-73
2022/06/01 12:55:04;;;;;;;1.80;1.13;;;;;;;;;;5017543;28;20057;-73
2022/06/01 12:57:33;;;;;;;2.20;0.65;;;;;;;;;;5022816;28;20033;-73
2022/06/01 13:00:00;;;;;;;2.60;0.77;;;;;;;;;;5031745;28;20021;-72
2022/06/01 13:02:29;;;;;;;1.83;0.68;;;;;;;;;;5029346;28;20462;-72
2022/06/01 13:04:56;;;;;;;2.60;0.65;;;;;;;;;;5028328;28;20109;-72
2022/06/01 13:07:41;;;;;;;1.10;0.70;;;;;;;;;;5031291;28;20033;-72
2022/06/01 13:10:09;;;;;;;5.22;0.60;;;;;;;;;;5031690;28;20033;-73
2022/06/01 13:12:34;;;;;;;1.75;0.65;;;;;;;;;;5025452;28;20083;-72
2022/06/01 13:15:06;;;;;;;2.28;0.80;;;;;;;;;;5013478;28;20026;-72
2022/06/01 13:17:32;;;;;;;1.13;0.70;;;;;;;;;;5019652;28;20021;-72
2022/06/01 13:19:58;;;;;;;1.85;0.70;;;;;;;;;;5028101;28;20024;-73
2022/06/01 13:22:28;;;;;;;1.60;0.85;;;;;;;;;;5031590;28;20040;-73
2022/06/01 13:24:56;;;;;;;2.05;0.93;;;;;;;;;;5030414;28;20040;-72
2022/06/01 13:27:22;;;;;;;1.77;0.80;;;;;;;;;;5029250;28;20036;-73
2022/06/01 13:29:48;;;;;;;2.25;1.00;;;;;;;;;;5030225;28;20096;-73
2022/06/01 13:32:15;;;;;;;1.70;1.00;;;;;;;;;;5031081;28;20021;-73
2022/06/01 13:34:45;;;;;;;2.85;1.10;;;;;;;;;;5029459;28;20343;-73
2022/06/01 13:37:15;;;;;;;3.75;1.23;;;;;;;;;;5030554;28;20029;-73
2022/06/01 13:39:42;;;;;;;3.22;1.00;;;;;;;;;;5031472;28;20040;-73
2022/06/01 13:42:07;;;;;;;2.58;1.00;;;;;;;;;;5028847;28;20018;-73
2022/06/01 13:44:54;;;;;;;3.35;1.20;;;;;;;;;;5028438;28;20372;-72
2022/06/01 13:47:25;;;;;;;5.18;1.20;;;;;;;;;;5027144;28;20109;-72
2022/06/01 13:49:58;;;;;;;2.95;1.30;;;;;;;;;;5026598;28;20120;-72
2022/06/01 13:52:25;;;;;;;2.15;1.15;;;;;;;;;;5026404;28;20663;-72
2022/06/01 13:55:06;;;;;;;3.17;1.15;;;;;;;;;;5022580;28;20022;-72
2022/06/01 13:57:43;;;;;;;4.45;1.50;;;;;;;;;;5011700;28;20018;-72
2022/06/01 14:00:16;;;;;;;3.28;1.60;;;;;;;;;;5018562;28;20026;-72
2022/06/01 14:02:50;;;;;;;2.78;1.48;;;;;;;;;;5018488;28;20553;-72
2022/06/01 14:05:18;;;;;;;3.92;1.30;;;;;;;;;;5027721;28;20071;-72
2022/06/01 14:07:44;;;;;;;2.65;1.30;;;;;;;;;;5030149;28;20333;-72
2022/06/01 14:10:10;;;;;;;2.95;1.30;;;;;;;;;;5017723;28;20030;-72
2022/06/01 14:12:37;;;;;;;3.22;1.70;;;;;;;;;;5010659;28;20029;-72
2022/06/01 14:15:02;;;;;;;3.33;1.30;;;;;;;;;;5024762;28;20037;-72
2022/06/01 14:17:28;;;;;;;2.67;1.10;;;;;;;;;;5030284;28;20029;-72
2022/06/01 14:19:53;;;;;;;3.15;1.60;;;;;;;;;;5030262;28;20029;-72
2022/06/01 14:22:18;;;;;;;5.00;1.70;;;;;;;;;;5030942;28;20029;-72
2022/06/01 14:30:13;;;;;;;3.80;1.30;;;;;;;;;;5025751;28;20036;-72
2022/06/01 14:32:43;;;;;;;4.05;1.48;;;;;;;;;;5010544;28;20022;-72
2022/06/01 14:35:10;;;;;;;2.72;1.15;;;;;;;;;;5030907;28;20391;-73
2022/06/01 14:37:35;;;;;;;2.90;1.40;;;;;;;;;;5034429;28;20059;-73
2022/06/01 14:40:00;;;;;;;3.70;1.10;;;;;;;;;;5031529;28;20029;-73
2022/06/01 14:42:26;;;;;;;2.45;1.20;;;;;;;;;;5034306;28;20147;-73
2022/06/01 14:44:51;;;;;;;3.53;1.10;;;;;;;;;;5030656;28;20022;-73
2022/06/01 14:47:16;;;;;;;2.50;0.98;;;;;;;;;;5033281;28;20021;-73
2022/06/01 14:49:41;;;;;;;1.50;0.73;;;;;;;;;;5033652;28;20022;-73
2022/06/01 14:52:08;;;;;;;1.83;0.90;;;;;;;;;;5026960;28;20106;-73
2022/06/01 14:54:35;;;;;;;1.70;0.90;;;;;;;;;;5019570;28;20033;-73
2022/06/01 14:57:01;;;;;;;1.67;1.00;;;;;;;;;;5031872;28;20030;-73
2022/06/01 14:59:27;;;;;;;3.90;1.02;;;;;;;;;;5034441;28;20021;-72
2022/06/01 15:01:54;;;;;;;5.57;1.00;;;;;;;;;;5031922;28;20026;-73
2022/06/01 15:04:22;;;;;;;4.85;0.90;;;;;;;;;;5023596;28;20041;-72
2022/06/01 15:06:49;;;;;;;1.92;0.80;;;;;;;;;;5029374;28;20053;-72
2022/06/01 15:09:15;;;;;;;1.85;0.73;;;;;;;;;;5032269;28;20409;-73
2022/06/01 15:11:41;;;;;;;2.65;1.10;;;;;;;;;;5030603;28;20037;-72
2022/06/01 15:14:06;;;;;;;2.05;0.90;;;;;;;;;;5030942;28;20546;-72
2022/06/01 15:16:32;;;;;;;3.22;1.17;;;;;;;;;;5031674;28;20030;-72